This is the latest recevied weather packets stored in our database for station/object VK2KGV-15. If no packets are shown the sender has not sent any weather packets the latest 10 day(s).
| Time | Temp. | Humidity | Pressure | Rain* | Wind** | Luminosity | Snow |
|---|---|---|---|---|---|---|---|
| 1777620320 | 20.56° C | 46% | 1022.6 hPa | 0 mm | - | - | - |
| 1777619113 | 21.11° C | 44% | 1022.6 hPa | 0 mm | - | - | - |
| 1777617907 | 21.67° C | 42% | 1022.4 hPa | 0 mm | - | - | - |
| 1777617304 | 22.22° C | 41% | 1022.5 hPa | 0 mm | - | - | - |
| 1777616701 | 22.78° C | 41% | 1022.4 hPa | 0 mm | - | - | - |
| 1777615495 | 23.33° C | 40% | 1022.4 hPa | 0 mm | - | - | - |
| 1777613082 | 24.44° C | 35% | 1022.2 hPa | 0 mm | - | - | - |
| 1777611879 | 24.44° C | 36% | 1022 hPa | 0 mm | - | - | - |
| 1777610670 | 25.56° C | 34% | 1021.8 hPa | 0 mm | - | - | - |
| 1777608860 | 24.44° C | 36% | 1022.1 hPa | 0 mm | - | - | - |
| 1777608257 | 24.44° C | 36% | 1022.2 hPa | 0 mm | - | - | - |
| 1777607051 | 25.56° C | 34% | 1022.1 hPa | 0 mm | - | - | - |
| 1777604639 | 25.56° C | 32% | 1022.5 hPa | 0 mm | - | - | - |
| 1777603432 | 25.56° C | 32% | 1022.7 hPa | 0 mm | - | - | - |
| 1777601020 | 25.56° C | 33% | 1023.4 hPa | 0 mm | - | - | - |
| 1777599814 | 25.56° C | 33% | 1023.7 hPa | 0 mm | - | - | - |
| 1777587751 | 18.89° C | 58% | 1026.1 hPa | 0 mm | - | - | - |
| 1777586545 | 17.22° C | 70% | 1026.3 hPa | 0 mm | - | - | - |
| 1777585339 | 13.33° C | 88% | 1026.5 hPa | 0 mm | - | - | - |
| 1777584736 | 10.56° C | 88% | 1026.7 hPa | 0 mm | - | - | - |
| 1777584133 | 8.89° C | 91% | 1026.9 hPa | 0 mm | - | - | - |
| 1777583530 | 7.78° C | 92% | 1026.8 hPa | 0 mm | - | - | - |
| 1777582927 | 6.67° C | 93% | 1027 hPa | 0 mm | - | - | - |
| 1777580514 | 5.56° C | 90% | 1026.8 hPa | 0 mm | - | - | - |
| 1777579911 | 5.56° C | 90% | 1026.6 hPa | 0 mm | - | - | - |
* Rain since midnight (hover to see other rain measurements)
** Current wind speed in m/s (hover to see current wind gust speed)